sensor_id;sensor_type;location;lat;lon;timestamp;temperature;humidity
1936;DHT22;969;49.892;10.896;2024-02-26T00:00:31;21.20;55.70
1936;DHT22;969;49.892;10.896;2024-02-26T00:02:57;21.20;55.70
1936;DHT22;969;49.892;10.896;2024-02-26T00:05:23;21.20;55.70
1936;DHT22;969;49.892;10.896;2024-02-26T00:07:48;21.20;55.70
1936;DHT22;969;49.892;10.896;2024-02-26T00:10:14;21.20;55.70
1936;DHT22;969;49.892;10.896;2024-02-26T00:12:40;21.20;55.70
1936;DHT22;969;49.892;10.896;2024-02-26T00:15:07;21.20;55.70
1936;DHT22;969;49.892;10.896;2024-02-26T00:17:33;21.20;55.70
1936;DHT22;969;49.892;10.896;2024-02-26T00:19:58;21.20;55.80
1936;DHT22;969;49.892;10.896;2024-02-26T00:22:26;21.20;55.80
1936;DHT22;969;49.892;10.896;2024-02-26T00:24:51;21.20;55.80
1936;DHT22;969;49.892;10.896;2024-02-26T00:27:17;21.20;55.70
1936;DHT22;969;49.892;10.896;2024-02-26T00:29:43;21.20;55.80
1936;DHT22;969;49.892;10.896;2024-02-26T00:32:08;21.20;55.80
1936;DHT22;969;49.892;10.896;2024-02-26T00:34:34;21.20;55.80
1936;DHT22;969;49.892;10.896;2024-02-26T00:36:59;21.20;55.80
1936;DHT22;969;49.892;10.896;2024-02-26T00:39:25;21.20;55.80
1936;DHT22;969;49.892;10.896;2024-02-26T00:41:51;21.20;55.80
1936;DHT22;969;49.892;10.896;2024-02-26T00:44:17;21.20;55.80
1936;DHT22;969;49.892;10.896;2024-02-26T00:46:43;21.20;55.70
1936;DHT22;969;49.892;10.896;2024-02-26T00:49:08;21.20;55.70
1936;DHT22;969;49.892;10.896;2024-02-26T00:51:34;21.20;55.70
1936;DHT22;969;49.892;10.896;2024-02-26T00:53:59;21.20;55.80
1936;DHT22;969;49.892;10.896;2024-02-26T00:56:25;21.20;56.30
1936;DHT22;969;49.892;10.896;2024-02-26T00:58:51;21.10;55.70
1936;DHT22;969;49.892;10.896;2024-02-26T01:01:17;21.20;55.80
1936;DHT22;969;49.892;10.896;2024-02-26T01:03:42;21.10;55.60
1936;DHT22;969;49.892;10.896;2024-02-26T01:06:08;21.20;55.80
1936;DHT22;969;49.892;10.896;2024-02-26T01:08:35;21.20;55.80
1936;DHT22;969;49.892;10.896;2024-02-26T01:11:01;21.10;55.70
1936;DHT22;969;49.892;10.896;2024-02-26T01:13:26;21.10;55.70
1936;DHT22;969;49.892;10.896;2024-02-26T01:15:52;21.20;55.90
1936;DHT22;969;49.892;10.896;2024-02-26T01:18:18;21.10;55.70
1936;DHT22;969;49.892;10.896;2024-02-26T01:20:43;21.10;55.70
1936;DHT22;969;49.892;10.896;2024-02-26T01:23:09;21.10;55.70
1936;DHT22;969;49.892;10.896;2024-02-26T01:25:34;21.10;55.70
1936;DHT22;969;49.892;10.896;2024-02-26T01:28:00;21.10;55.70
1936;DHT22;969;49.892;10.896;2024-02-26T01:30:25;21.10;55.70
1936;DHT22;969;49.892;10.896;2024-02-26T01:32:51;21.10;55.70
1936;DHT22;969;49.892;10.896;2024-02-26T01:35:17;21.10;55.70
1936;DHT22;969;49.892;10.896;2024-02-26T01:37:42;21.10;55.70
1936;DHT22;969;49.892;10.896;2024-02-26T01:40:08;21.10;55.70
1936;DHT22;969;49.892;10.896;2024-02-26T01:42:34;21.10;55.70
1936;DHT22;969;49.892;10.896;2024-02-26T01:45:01;21.10;55.70
1936;DHT22;969;49.892;10.896;2024-02-26T01:47:26;21.10;55.70
1936;DHT22;969;49.892;10.896;2024-02-26T01:49:53;21.10;55.70
1936;DHT22;969;49.892;10.896;2024-02-26T01:52:19;21.10;55.70
1936;DHT22;969;49.892;10.896;2024-02-26T01:54:46;21.10;55.70
1936;DHT22;969;49.892;10.896;2024-02-26T01:57:12;21.10;55.70
1936;DHT22;969;49.892;10.896;2024-02-26T01:59:40;21.10;55.70
1936;DHT22;969;49.892;10.896;2024-02-26T02:02:07;21.10;55.70
1936;DHT22;969;49.892;10.896;2024-02-26T02:04:36;21.10;55.70
1936;DHT22;969;49.892;10.896;2024-02-26T02:07:02;21.10;55.70
1936;DHT22;969;49.892;10.896;2024-02-26T02:09:28;21.10;55.70
1936;DHT22;969;49.892;10.896;2024-02-26T02:11:54;21.10;55.70
1936;DHT22;969;49.892;10.896;2024-02-26T02:14:21;21.10;55.70
1936;DHT22;969;49.892;10.896;2024-02-26T02:16:47;21.10;55.70
1936;DHT22;969;49.892;10.896;2024-02-26T02:19:13;21.10;55.70
1936;DHT22;969;49.892;10.896;2024-02-26T02:21:39;21.10;55.70
1936;DHT22;969;49.892;10.896;2024-02-26T02:24:05;21.10;55.70
1936;DHT22;969;49.892;10.896;2024-02-26T02:26:30;21.10;55.70
1936;DHT22;969;49.892;10.896;2024-02-26T02:28:56;21.10;55.70
1936;DHT22;969;49.892;10.896;2024-02-26T02:31:22;21.10;55.70
1936;DHT22;969;49.892;10.896;2024-02-26T02:33:48;21.10;55.70
1936;DHT22;969;49.892;10.896;2024-02-26T02:36:14;21.10;55.70
1936;DHT22;969;49.892;10.896;2024-02-26T02:38:49;21.10;55.70
1936;DHT22;969;49.892;10.896;2024-02-26T02:41:18;21.10;55.70
1936;DHT22;969;49.892;10.896;2024-02-26T02:43:44;21.10;55.70
1936;DHT22;969;49.892;10.896;2024-02-26T02:46:10;21.10;55.70
1936;DHT22;969;49.892;10.896;2024-02-26T02:48:38;21.10;55.70
1936;DHT22;969;49.892;10.896;2024-02-26T02:51:05;21.10;55.70
1936;DHT22;969;49.892;10.896;2024-02-26T02:53:30;21.10;55.70
1936;DHT22;969;49.892;10.896;2024-02-26T02:55:56;21.10;55.70
1936;DHT22;969;49.892;10.896;2024-02-26T02:58:21;21.10;55.70
1936;DHT22;969;49.892;10.896;2024-02-26T03:00:47;21.10;55.70
1936;DHT22;969;49.892;10.896;2024-02-26T03:03:13;21.10;55.70
1936;DHT22;969;49.892;10.896;2024-02-26T03:05:38;21.10;55.70
1936;DHT22;969;49.892;10.896;2024-02-26T03:08:04;21.10;55.70
1936;DHT22;969;49.892;10.896;2024-02-26T03:10:29;21.10;55.70
1936;DHT22;969;49.892;10.896;2024-02-26T03:12:55;21.10;55.70
1936;DHT22;969;49.892;10.896;2024-02-26T03:15:21;21.10;55.80
1936;DHT22;969;49.892;10.896;2024-02-26T03:17:47;21.10;55.70
1936;DHT22;969;49.892;10.896;2024-02-26T03:20:12;21.10;55.70
1936;DHT22;969;49.892;10.896;2024-02-26T03:22:39;21.10;55.70
1936;DHT22;969;49.892;10.896;2024-02-26T03:25:06;21.10;55.70
1936;DHT22;969;49.892;10.896;2024-02-26T03:27:31;21.10;55.70
1936;DHT22;969;49.892;10.896;2024-02-26T03:29:57;21.10;55.70
1936;DHT22;969;49.892;10.896;2024-02-26T03:32:23;21.10;55.70
1936;DHT22;969;49.892;10.896;2024-02-26T03:34:49;21.10;55.70
1936;DHT22;969;49.892;10.896;2024-02-26T03:37:14;21.10;55.70
1936;DHT22;969;49.892;10.896;2024-02-26T03:39:40;21.00;55.70
1936;DHT22;969;49.892;10.896;2024-02-26T03:42:06;21.00;55.70
1936;DHT22;969;49.892;10.896;2024-02-26T03:44:31;21.10;55.70
1936;DHT22;969;49.892;10.896;2024-02-26T03:46:57;21.00;55.70
1936;DHT22;969;49.892;10.896;2024-02-26T03:49:23;21.00;55.70
1936;DHT22;969;49.892;10.896;2024-02-26T03:51:49;21.10;55.80
1936;DHT22;969;49.892;10.896;2024-02-26T03:54:14;21.10;55.70
1936;DHT22;969;49.892;10.896;2024-02-26T03:56:40;21.00;55.70
1936;DHT22;969;49.892;10.896;2024-02-26T03:59:05;21.00;55.70
1936;DHT22;969;49.892;10.896;2024-02-26T04:01:31;21.00;55.70
1936;DHT22;969;49.892;10.896;2024-02-26T04:03:57;21.00;55.70
1936;DHT22;969;49.892;10.896;2024-02-26T04:06:22;21.00;55.70
1936;DHT22;969;49.892;10.896;2024-02-26T04:08:48;21.00;55.70
1936;DHT22;969;49.892;10.896;2024-02-26T04:11:14;21.00;55.70
1936;DHT22;969;49.892;10.896;2024-02-26T04:13:46;21.00;55.70
1936;DHT22;969;49.892;10.896;2024-02-26T04:16:15;21.00;55.70
1936;DHT22;969;49.892;10.896;2024-02-26T04:18:41;21.00;55.70
1936;DHT22;969;49.892;10.896;2024-02-26T04:21:07;21.00;55.70
1936;DHT22;969;49.892;10.896;2024-02-26T04:23:33;21.00;55.70
1936;DHT22;969;49.892;10.896;2024-02-26T04:25:58;21.00;55.70
1936;DHT22;969;49.892;10.896;2024-02-26T04:28:24;21.00;55.70
1936;DHT22;969;49.892;10.896;2024-02-26T04:30:55;21.00;55.70
1936;DHT22;969;49.892;10.896;2024-02-26T04:33:20;21.00;55.70
1936;DHT22;969;49.892;10.896;2024-02-26T04:35:46;21.00;55.70
1936;DHT22;969;49.892;10.896;2024-02-26T04:38:12;21.00;55.70
1936;DHT22;969;49.892;10.896;2024-02-26T04:40:37;21.00;55.70
1936;DHT22;969;49.892;10.896;2024-02-26T04:43:03;21.00;55.70
1936;DHT22;969;49.892;10.896;2024-02-26T04:45:29;21.00;55.70
1936;DHT22;969;49.892;10.896;2024-02-26T04:47:54;20.90;55.60
1936;DHT22;969;49.892;10.896;2024-02-26T04:50:20;20.90;55.60
1936;DHT22;969;49.892;10.896;2024-02-26T04:52:46;20.90;55.70
1936;DHT22;969;49.892;10.896;2024-02-26T04:55:11;21.00;55.70
1936;DHT22;969;49.892;10.896;2024-02-26T04:57:37;20.90;55.70
1936;DHT22;969;49.892;10.896;2024-02-26T05:00:04;21.00;55.70
1936;DHT22;969;49.892;10.896;2024-02-26T05:02:30;20.90;55.60
1936;DHT22;969;49.892;10.896;2024-02-26T05:04:57;21.00;55.70
1936;DHT22;969;49.892;10.896;2024-02-26T05:07:23;21.00;55.70
1936;DHT22;969;49.892;10.896;2024-02-26T05:09:48;21.00;55.70
1936;DHT22;969;49.892;10.896;2024-02-26T05:12:15;21.00;55.70
1936;DHT22;969;49.892;10.896;2024-02-26T05:14:40;21.00;55.70
1936;DHT22;969;49.892;10.896;2024-02-26T05:17:06;21.00;55.70
1936;DHT22;969;49.892;10.896;2024-02-26T05:19:32;21.00;55.70
1936;DHT22;969;49.892;10.896;2024-02-26T05:21:57;21.00;55.70
1936;DHT22;969;49.892;10.896;2024-02-26T05:24:23;21.00;55.70
1936;DHT22;969;49.892;10.896;2024-02-26T05:26:49;21.00;55.70
1936;DHT22;969;49.892;10.896;2024-02-26T05:29:14;21.00;55.70
1936;DHT22;969;49.892;10.896;2024-02-26T05:31:42;21.00;55.60
1936;DHT22;969;49.892;10.896;2024-02-26T05:34:08;21.10;55.70
1936;DHT22;969;49.892;10.896;2024-02-26T05:36:34;21.00;55.60
1936;DHT22;969;49.892;10.896;2024-02-26T05:39:00;21.00;55.60
1936;DHT22;969;49.892;10.896;2024-02-26T05:41:26;21.00;55.60
1936;DHT22;969;49.892;10.896;2024-02-26T05:43:52;21.00;55.60
1936;DHT22;969;49.892;10.896;2024-02-26T05:46:18;21.10;56.20
1936;DHT22;969;49.892;10.896;2024-02-26T05:48:46;21.00;55.60
1936;DHT22;969;49.892;10.896;2024-02-26T05:51:12;21.00;55.50
1936;DHT22;969;49.892;10.896;2024-02-26T05:53:37;21.00;55.50
1936;DHT22;969;49.892;10.896;2024-02-26T05:56:03;21.00;55.50
1936;DHT22;969;49.892;10.896;2024-02-26T05:58:29;21.00;55.50
1936;DHT22;969;49.892;10.896;2024-02-26T06:00:54;21.00;55.60
1936;DHT22;969;49.892;10.896;2024-02-26T06:03:20;21.00;55.60
1936;DHT22;969;49.892;10.896;2024-02-26T06:05:46;21.00;55.60
1936;DHT22;969;49.892;10.896;2024-02-26T06:08:11;21.00;55.60
1936;DHT22;969;49.892;10.896;2024-02-26T06:10:37;21.00;55.60
1936;DHT22;969;49.892;10.896;2024-02-26T06:13:04;21.00;55.60
1936;DHT22;969;49.892;10.896;2024-02-26T06:15:30;21.00;55.60
1936;DHT22;969;49.892;10.896;2024-02-26T06:17:55;21.00;55.60
1936;DHT22;969;49.892;10.896;2024-02-26T06:20:21;21.00;55.60
1936;DHT22;969;49.892;10.896;2024-02-26T06:22:47;21.00;55.60
1936;DHT22;969;49.892;10.896;2024-02-26T06:25:12;21.00;55.60
1936;DHT22;969;49.892;10.896;2024-02-26T06:27:38;21.10;55.70
1936;DHT22;969;49.892;10.896;2024-02-26T06:30:04;21.10;55.70
1936;DHT22;969;49.892;10.896;2024-02-26T06:32:29;21.10;55.70
1936;DHT22;969;49.892;10.896;2024-02-26T06:34:55;21.10;55.70
1936;DHT22;969;49.892;10.896;2024-02-26T06:37:21;21.10;55.70
1936;DHT22;969;49.892;10.896;2024-02-26T06:39:47;21.10;55.60
1936;DHT22;969;49.892;10.896;2024-02-26T06:42:13;21.10;55.70
1936;DHT22;969;49.892;10.896;2024-02-26T06:44:38;21.20;55.70
1936;DHT22;969;49.892;10.896;2024-02-26T06:47:04;21.20;55.70
1936;DHT22;969;49.892;10.896;2024-02-26T06:49:30;21.20;55.70
1936;DHT22;969;49.892;10.896;2024-02-26T06:51:55;21.20;55.70
1936;DHT22;969;49.892;10.896;2024-02-26T06:54:21;21.30;55.70
1936;DHT22;969;49.892;10.896;2024-02-26T06:56:47;21.30;55.70
1936;DHT22;969;49.892;10.896;2024-02-26T06:59:12;21.30;55.70
1936;DHT22;969;49.892;10.896;2024-02-26T07:01:41;21.30;55.70
1936;DHT22;969;49.892;10.896;2024-02-26T07:04:06;21.30;55.70
1936;DHT22;969;49.892;10.896;2024-02-26T07:06:32;21.30;55.60
1936;DHT22;969;49.892;10.896;2024-02-26T07:08:58;21.30;55.60
1936;DHT22;969;49.892;10.896;2024-02-26T07:11:23;21.30;55.60
1936;DHT22;969;49.892;10.896;2024-02-26T07:13:49;21.40;55.60
1936;DHT22;969;49.892;10.896;2024-02-26T07:16:15;21.30;55.50
1936;DHT22;969;49.892;10.896;2024-02-26T07:18:41;21.30;55.50
1936;DHT22;969;49.892;10.896;2024-02-26T07:21:08;21.40;55.60
1936;DHT22;969;49.892;10.896;2024-02-26T07:23:34;21.40;55.60
1936;DHT22;969;49.892;10.896;2024-02-26T07:26:00;21.40;55.50
1936;DHT22;969;49.892;10.896;2024-02-26T07:28:25;21.40;55.60
1936;DHT22;969;49.892;10.896;2024-02-26T07:30:51;21.40;55.80
1936;DHT22;969;49.892;10.896;2024-02-26T07:33:16;21.40;55.60
1936;DHT22;969;49.892;10.896;2024-02-26T07:35:42;21.40;55.60
1936;DHT22;969;49.892;10.896;2024-02-26T07:38:07;21.40;55.60
1936;DHT22;969;49.892;10.896;2024-02-26T07:40:33;21.40;55.60
1936;DHT22;969;49.892;10.896;2024-02-26T07:42:59;21.40;55.60
1936;DHT22;969;49.892;10.896;2024-02-26T07:45:24;21.40;55.60
1936;DHT22;969;49.892;10.896;2024-02-26T07:47:50;21.40;55.60
1936;DHT22;969;49.892;10.896;2024-02-26T07:50:17;21.40;55.60
1936;DHT22;969;49.892;10.896;2024-02-26T07:52:42;21.40;55.60
1936;DHT22;969;49.892;10.896;2024-02-26T07:55:09;21.40;55.60
1936;DHT22;969;49.892;10.896;2024-02-26T07:57:35;21.40;55.60
1936;DHT22;969;49.892;10.896;2024-02-26T08:00:01;21.40;55.60
1936;DHT22;969;49.892;10.896;2024-02-26T08:02:28;21.40;55.60
1936;DHT22;969;49.892;10.896;2024-02-26T08:04:53;21.40;55.60
1936;DHT22;969;49.892;10.896;2024-02-26T08:07:19;21.40;55.50
1936;DHT22;969;49.892;10.896;2024-02-26T08:09:47;21.40;56.10
1936;DHT22;969;49.892;10.896;2024-02-26T08:12:12;21.40;55.50
1936;DHT22;969;49.892;10.896;2024-02-26T08:14:38;21.40;55.60
1936;DHT22;969;49.892;10.896;2024-02-26T08:17:04;21.40;55.60
1936;DHT22;969;49.892;10.896;2024-02-26T08:19:29;21.50;55.70
1936;DHT22;969;49.892;10.896;2024-02-26T08:21:55;21.40;55.60
1936;DHT22;969;49.892;10.896;2024-02-26T08:24:20;21.40;55.60
1936;DHT22;969;49.892;10.896;2024-02-26T08:26:46;21.40;55.60
1936;DHT22;969;49.892;10.896;2024-02-26T08:29:11;21.40;55.70
1936;DHT22;969;49.892;10.896;2024-02-26T08:31:37;21.40;55.60
1936;DHT22;969;49.892;10.896;2024-02-26T08:34:06;21.40;55.60
1936;DHT22;969;49.892;10.896;2024-02-26T08:36:33;21.50;55.70
1936;DHT22;969;49.892;10.896;2024-02-26T08:38:59;21.40;55.70
1936;DHT22;969;49.892;10.896;2024-02-26T08:41:25;21.40;55.70
1936;DHT22;969;49.892;10.896;2024-02-26T08:43:50;21.40;55.70
1936;DHT22;969;49.892;10.896;2024-02-26T08:46:16;21.40;55.70
1936;DHT22;969;49.892;10.896;2024-02-26T08:48:42;21.40;55.70
1936;DHT22;969;49.892;10.896;2024-02-26T08:51:08;21.40;55.70
1936;DHT22;969;49.892;10.896;2024-02-26T08:53:34;21.40;55.70
1936;DHT22;969;49.892;10.896;2024-02-26T08:56:00;21.40;56.30
1936;DHT22;969;49.892;10.896;2024-02-26T08:58:27;21.40;55.70
1936;DHT22;969;49.892;10.896;2024-02-26T09:00:54;21.40;55.70
1936;DHT22;969;49.892;10.896;2024-02-26T09:03:19;21.40;55.70
1936;DHT22;969;49.892;10.896;2024-02-26T09:05:45;21.40;55.80
1936;DHT22;969;49.892;10.896;2024-02-26T09:08:11;21.40;55.80
1936;DHT22;969;49.892;10.896;2024-02-26T09:10:36;21.40;55.80
1936;DHT22;969;49.892;10.896;2024-02-26T09:13:02;21.40;55.80
1936;DHT22;969;49.892;10.896;2024-02-26T09:15:27;21.40;55.80
1936;DHT22;969;49.892;10.896;2024-02-26T09:17:53;21.40;55.80
1936;DHT22;969;49.892;10.896;2024-02-26T09:20:19;21.40;55.80
1936;DHT22;969;49.892;10.896;2024-02-26T09:22:46;21.40;55.80
1936;DHT22;969;49.892;10.896;2024-02-26T09:25:13;21.40;55.90
1936;DHT22;969;49.892;10.896;2024-02-26T09:27:38;21.40;55.80
1936;DHT22;969;49.892;10.896;2024-02-26T09:30:04;21.40;55.80
1936;DHT22;969;49.892;10.896;2024-02-26T09:32:30;21.40;55.80
1936;DHT22;969;49.892;10.896;2024-02-26T09:34:56;21.40;55.90
1936;DHT22;969;49.892;10.896;2024-02-26T09:37:22;21.40;56.40
1936;DHT22;969;49.892;10.896;2024-02-26T09:39:47;21.40;55.90
1936;DHT22;969;49.892;10.896;2024-02-26T09:42:13;21.40;55.90
1936;DHT22;969;49.892;10.896;2024-02-26T09:44:40;21.40;55.90
1936;DHT22;969;49.892;10.896;2024-02-26T09:47:09;21.40;55.90
1936;DHT22;969;49.892;10.896;2024-02-26T09:49:36;21.40;55.90
1936;DHT22;969;49.892;10.896;2024-02-26T09:52:03;21.40;55.90
1936;DHT22;969;49.892;10.896;2024-02-26T09:54:30;21.40;55.90
1936;DHT22;969;49.892;10.896;2024-02-26T09:56:59;21.40;55.90
1936;DHT22;969;49.892;10.896;2024-02-26T09:59:27;21.40;55.90
1936;DHT22;969;49.892;10.896;2024-02-26T10:01:53;21.40;55.90
1936;DHT22;969;49.892;10.896;2024-02-26T10:04:20;21.40;55.90
1936;DHT22;969;49.892;10.896;2024-02-26T10:06:47;21.40;55.90
1936;DHT22;969;49.892;10.896;2024-02-26T10:09:12;21.40;55.90
1936;DHT22;969;49.892;10.896;2024-02-26T10:11:41;21.40;55.90
1936;DHT22;969;49.892;10.896;2024-02-26T10:14:08;21.40;55.90
1936;DHT22;969;49.892;10.896;2024-02-26T10:16:34;21.40;55.90
1936;DHT22;969;49.892;10.896;2024-02-26T10:19:00;21.40;55.90
1936;DHT22;969;49.892;10.896;2024-02-26T10:21:26;21.40;55.90
1936;DHT22;969;49.892;10.896;2024-02-26T10:23:53;21.40;55.90
1936;DHT22;969;49.892;10.896;2024-02-26T10:26:20;21.40;55.90
1936;DHT22;969;49.892;10.896;2024-02-26T10:28:46;21.40;55.90
1936;DHT22;969;49.892;10.896;2024-02-26T10:31:13;21.40;55.90
1936;DHT22;969;49.892;10.896;2024-02-26T10:33:41;21.40;55.90
1936;DHT22;969;49.892;10.896;2024-02-26T10:36:08;21.40;55.90
1936;DHT22;969;49.892;10.896;2024-02-26T10:38:35;21.40;56.00
1936;DHT22;969;49.892;10.896;2024-02-26T10:41:07;21.40;56.00
1936;DHT22;969;49.892;10.896;2024-02-26T10:43:38;21.40;56.00
1936;DHT22;969;49.892;10.896;2024-02-26T10:46:03;21.40;56.00
1936;DHT22;969;49.892;10.896;2024-02-26T10:48:29;21.40;56.00
1936;DHT22;969;49.892;10.896;2024-02-26T10:50:55;21.40;56.00
1936;DHT22;969;49.892;10.896;2024-02-26T10:53:23;21.40;56.00
1936;DHT22;969;49.892;10.896;2024-02-26T10:55:55;21.40;56.10
1936;DHT22;969;49.892;10.896;2024-02-26T10:58:22;21.40;56.10
1936;DHT22;969;49.892;10.896;2024-02-26T11:00:50;21.40;56.10
1936;DHT22;969;49.892;10.896;2024-02-26T11:03:17;21.40;56.10
1936;DHT22;969;49.892;10.896;2024-02-26T11:05:49;21.40;56.10
1936;DHT22;969;49.892;10.896;2024-02-26T11:08:18;21.40;56.10
1936;DHT22;969;49.892;10.896;2024-02-26T11:10:47;21.40;56.10
1936;DHT22;969;49.892;10.896;2024-02-26T11:13:15;21.40;56.10
1936;DHT22;969;49.892;10.896;2024-02-26T11:15:43;21.40;56.20
1936;DHT22;969;49.892;10.896;2024-02-26T11:18:10;21.40;56.10
1936;DHT22;969;49.892;10.896;2024-02-26T11:20:38;21.40;56.10
1936;DHT22;969;49.892;10.896;2024-02-26T11:23:06;21.40;56.10
1936;DHT22;969;49.892;10.896;2024-02-26T11:25:32;21.40;56.20
1936;DHT22;969;49.892;10.896;2024-02-26T11:28:04;21.40;56.20
1936;DHT22;969;49.892;10.896;2024-02-26T11:30:35;21.40;56.20
1936;DHT22;969;49.892;10.896;2024-02-26T11:33:01;21.40;56.20
1936;DHT22;969;49.892;10.896;2024-02-26T11:35:28;21.40;56.20
1936;DHT22;969;49.892;10.896;2024-02-26T11:37:55;21.40;56.20
1936;DHT22;969;49.892;10.896;2024-02-26T11:40:23;21.40;56.20
1936;DHT22;969;49.892;10.896;2024-02-26T11:42:51;21.40;56.20
1936;DHT22;969;49.892;10.896;2024-02-26T11:48:19;21.40;56.20
1936;DHT22;969;49.892;10.896;2024-02-26T11:50:50;21.40;56.20
1936;DHT22;969;49.892;10.896;2024-02-26T11:53:24;21.40;56.20
1936;DHT22;969;49.892;10.896;2024-02-26T11:59:09;21.40;56.20
1936;DHT22;969;49.892;10.896;2024-02-26T12:01:45;21.40;56.20
1936;DHT22;969;49.892;10.896;2024-02-26T12:04:15;21.30;56.10
1936;DHT22;969;49.892;10.896;2024-02-26T12:06:52;21.40;56.20
1936;DHT22;969;49.892;10.896;2024-02-26T12:09:50;21.30;56.20
1936;DHT22;969;49.892;10.896;2024-02-26T12:12:18;21.40;56.20
1936;DHT22;969;49.892;10.896;2024-02-26T12:14:52;21.30;56.20
1936;DHT22;969;49.892;10.896;2024-02-26T12:17:24;21.40;56.20
1936;DHT22;969;49.892;10.896;2024-02-26T12:19:50;21.30;56.20
1936;DHT22;969;49.892;10.896;2024-02-26T12:22:17;21.40;56.20
1936;DHT22;969;49.892;10.896;2024-02-26T12:24:46;21.30;56.20
1936;DHT22;969;49.892;10.896;2024-02-26T12:27:11;21.40;56.20
1936;DHT22;969;49.892;10.896;2024-02-26T12:29:37;21.40;56.20
1936;DHT22;969;49.892;10.896;2024-02-26T12:32:06;21.40;56.20
1936;DHT22;969;49.892;10.896;2024-02-26T12:34:32;21.40;56.20
1936;DHT22;969;49.892;10.896;2024-02-26T12:36:58;21.40;56.20
1936;DHT22;969;49.892;10.896;2024-02-26T12:39:24;21.40;56.20
1936;DHT22;969;49.892;10.896;2024-02-26T12:41:50;21.40;56.20
1936;DHT22;969;49.892;10.896;2024-02-26T12:44:24;21.40;56.20
1936;DHT22;969;49.892;10.896;2024-02-26T12:46:51;21.40;56.20
1936;DHT22;969;49.892;10.896;2024-02-26T12:49:16;21.40;56.20
1936;DHT22;969;49.892;10.896;2024-02-26T12:51:44;21.40;56.20
1936;DHT22;969;49.892;10.896;2024-02-26T12:54:10;21.40;56.20
1936;DHT22;969;49.892;10.896;2024-02-26T12:56:36;21.40;56.20
1936;DHT22;969;49.892;10.896;2024-02-26T12:59:02;21.40;56.20
1936;DHT22;969;49.892;10.896;2024-02-26T13:01:29;21.40;56.30
1936;DHT22;969;49.892;10.896;2024-02-26T13:03:55;21.40;56.30
1936;DHT22;969;49.892;10.896;2024-02-26T13:06:21;21.40;56.30
1936;DHT22;969;49.892;10.896;2024-02-26T13:08:47;21.30;56.20
1936;DHT22;969;49.892;10.896;2024-02-26T13:11:13;21.40;56.30
1936;DHT22;969;49.892;10.896;2024-02-26T13:13:39;21.40;56.30
1936;DHT22;969;49.892;10.896;2024-02-26T13:16:07;21.30;56.30
1936;DHT22;969;49.892;10.896;2024-02-26T13:18:34;21.40;56.40
1936;DHT22;969;49.892;10.896;2024-02-26T13:21:18;21.30;56.40
1936;DHT22;969;49.892;10.896;2024-02-26T13:23:45;21.40;56.40
1936;DHT22;969;49.892;10.896;2024-02-26T13:26:13;21.30;56.30
1936;DHT22;969;49.892;10.896;2024-02-26T13:28:40;21.30;56.80
1936;DHT22;969;49.892;10.896;2024-02-26T13:31:06;21.40;56.40
1936;DHT22;969;49.892;10.896;2024-02-26T13:33:33;21.30;56.30
1936;DHT22;969;49.892;10.896;2024-02-26T13:35:59;21.30;56.30
1936;DHT22;969;49.892;10.896;2024-02-26T13:38:26;21.30;56.30
1936;DHT22;969;49.892;10.896;2024-02-26T13:40:52;21.30;56.30
1936;DHT22;969;49.892;10.896;2024-02-26T13:43:18;21.30;56.40
1936;DHT22;969;49.892;10.896;2024-02-26T13:45:45;21.30;56.40
1936;DHT22;969;49.892;10.896;2024-02-26T13:48:11;21.30;56.30
1936;DHT22;969;49.892;10.896;2024-02-26T13:50:41;21.30;56.30
1936;DHT22;969;49.892;10.896;2024-02-26T13:53:08;21.30;56.40
1936;DHT22;969;49.892;10.896;2024-02-26T13:55:34;21.30;56.40
1936;DHT22;969;49.892;10.896;2024-02-26T13:58:00;21.30;56.30
1936;DHT22;969;49.892;10.896;2024-02-26T14:00:29;21.30;56.30
1936;DHT22;969;49.892;10.896;2024-02-26T14:02:58;21.30;56.30
1936;DHT22;969;49.892;10.896;2024-02-26T14:05:24;21.30;56.30
1936;DHT22;969;49.892;10.896;2024-02-26T14:07:49;21.30;56.30
1936;DHT22;969;49.892;10.896;2024-02-26T14:10:15;21.30;56.30
1936;DHT22;969;49.892;10.896;2024-02-26T14:12:41;21.30;56.40
1936;DHT22;969;49.892;10.896;2024-02-26T14:15:08;21.30;56.40
1936;DHT22;969;49.892;10.896;2024-02-26T14:17:35;21.30;56.30
1936;DHT22;969;49.892;10.896;2024-02-26T14:20:00;21.30;56.30
1936;DHT22;969;49.892;10.896;2024-02-26T14:22:26;21.30;56.30
1936;DHT22;969;49.892;10.896;2024-02-26T14:24:52;21.30;56.30
1936;DHT22;969;49.892;10.896;2024-02-26T14:27:19;21.30;56.20
1936;DHT22;969;49.892;10.896;2024-02-26T14:29:47;21.30;56.20
1936;DHT22;969;49.892;10.896;2024-02-26T14:32:13;21.30;56.20
1936;DHT22;969;49.892;10.896;2024-02-26T14:34:39;21.30;56.20
1936;DHT22;969;49.892;10.896;2024-02-26T14:37:04;21.30;56.20
1936;DHT22;969;49.892;10.896;2024-02-26T14:39:33;21.30;56.70
1936;DHT22;969;49.892;10.896;2024-02-26T14:41:59;21.30;56.20
1936;DHT22;969;49.892;10.896;2024-02-26T14:44:25;21.30;56.20
1936;DHT22;969;49.892;10.896;2024-02-26T14:46:51;21.30;56.20
1936;DHT22;969;49.892;10.896;2024-02-26T14:49:17;21.30;56.20
1936;DHT22;969;49.892;10.896;2024-02-26T14:51:43;21.30;56.30
1936;DHT22;969;49.892;10.896;2024-02-26T14:54:13;21.30;56.40
1936;DHT22;969;49.892;10.896;2024-02-26T14:56:38;21.20;56.30
1936;DHT22;969;49.892;10.896;2024-02-26T14:59:04;21.30;56.40
1936;DHT22;969;49.892;10.896;2024-02-26T15:01:30;21.20;56.40
1936;DHT22;969;49.892;10.896;2024-02-26T15:03:55;21.30;56.50
1936;DHT22;969;49.892;10.896;2024-02-26T15:06:22;21.30;56.50
1936;DHT22;969;49.892;10.896;2024-02-26T15:08:48;21.20;56.50
1936;DHT22;969;49.892;10.896;2024-02-26T15:11:13;21.20;56.50
1936;DHT22;969;49.892;10.896;2024-02-26T15:13:39;21.30;56.70
1936;DHT22;969;49.892;10.896;2024-02-26T15:16:05;21.30;56.70
1936;DHT22;969;49.892;10.896;2024-02-26T15:18:31;21.30;56.70
1936;DHT22;969;49.892;10.896;2024-02-26T15:20:57;21.30;56.70
1936;DHT22;969;49.892;10.896;2024-02-26T15:23:22;21.30;56.70
1936;DHT22;969;49.892;10.896;2024-02-26T15:25:48;21.30;56.80
1936;DHT22;969;49.892;10.896;2024-02-26T15:28:14;21.30;56.70
1936;DHT22;969;49.892;10.896;2024-02-26T15:30:40;21.30;56.80
1936;DHT22;969;49.892;10.896;2024-02-26T15:33:06;21.30;56.80
1936;DHT22;969;49.892;10.896;2024-02-26T15:35:32;21.30;56.80
1936;DHT22;969;49.892;10.896;2024-02-26T15:37:57;21.30;56.80
1936;DHT22;969;49.892;10.896;2024-02-26T15:40:24;21.30;56.70
1936;DHT22;969;49.892;10.896;2024-02-26T15:42:49;21.30;56.70
1936;DHT22;969;49.892;10.896;2024-02-26T15:45:15;21.30;56.70
1936;DHT22;969;49.892;10.896;2024-02-26T15:47:42;21.30;56.70
1936;DHT22;969;49.892;10.896;2024-02-26T15:50:08;21.30;56.70
1936;DHT22;969;49.892;10.896;2024-02-26T15:52:36;21.30;56.70
1936;DHT22;969;49.892;10.896;2024-02-26T15:55:01;21.30;56.60
1936;DHT22;969;49.892;10.896;2024-02-26T15:57:27;21.30;56.60
1936;DHT22;969;49.892;10.896;2024-02-26T15:59:53;21.30;56.70
1936;DHT22;969;49.892;10.896;2024-02-26T16:02:19;21.30;56.60